createdAt,value
2018-04-26T00:05:01.424Z,72.80
2018-04-26T00:10:04.651Z,73.10
2018-04-26T00:15:07.116Z,72.90
2018-04-26T00:20:10.351Z,73.40
2018-04-26T00:25:12.843Z,73.30
2018-04-26T00:30:15.319Z,73.80
2018-04-26T00:35:17.774Z,73.90
2018-04-26T00:40:20.251Z,74.00
2018-04-26T00:45:22.764Z,74.00
2018-04-26T00:50:25.178Z,74.00
2018-04-26T00:55:27.634Z,74.30
2018-04-26T01:00:30.866Z,74.10
2018-04-26T01:05:33.337Z,73.90
2018-04-26T01:10:36.562Z,73.70
2018-04-26T01:15:39.898Z,74.00
2018-04-26T01:20:42.361Z,72.90
2018-04-26T01:25:44.846Z,72.30
2018-04-26T01:30:47.304Z,71.80
2018-04-26T01:35:50.526Z,71.40
2018-04-26T01:40:52.970Z,71.20
2018-04-26T01:45:55.432Z,70.80
2018-04-26T01:50:57.878Z,70.30
2018-04-26T01:56:01.090Z,70.10
2018-04-26T02:01:04.318Z,70.30
2018-04-26T02:06:06.782Z,70.10
2018-04-26T02:11:10.011Z,69.30
2018-04-26T02:16:12.466Z,70.30
2018-04-26T02:21:15.698Z,69.80
2018-04-26T02:26:18.174Z,69.70
2018-04-26T02:31:21.390Z,69.80
2018-04-26T02:36:23.862Z,70.40
2018-04-26T02:41:27.078Z,69.60
2018-04-26T02:46:29.542Z,69.50
2018-04-26T02:51:32.774Z,69.20
2018-04-26T02:56:35.231Z,69.00
2018-04-26T03:01:37.698Z,69.20
2018-04-26T03:06:40.146Z,69.00
2018-04-26T03:11:42.602Z,68.80
2018-04-26T03:16:45.827Z,70.40
2018-04-26T03:21:48.295Z,70.30
2018-04-26T03:26:51.509Z,71.40
2018-04-26T03:31:54.738Z,71.30
2018-04-26T03:36:57.190Z,72.00
2018-04-26T03:41:59.654Z,70.70
2018-04-26T03:47:02.119Z,70.60
2018-04-26T03:52:04.581Z,70.90
2018-04-26T03:57:07.025Z,70.80
2018-04-26T04:02:21.314Z,70.70
2018-04-26T04:07:24.538Z,71.00
2018-04-26T04:12:27.003Z,70.90
2018-04-26T04:17:30.226Z,71.50
2018-04-26T04:22:32.682Z,71.50
2018-04-26T04:27:35.145Z,71.50
2018-04-26T04:32:37.642Z,72.00
2018-04-26T04:37:40.097Z,72.60
2018-04-26T04:42:42.551Z,73.20
2018-04-26T04:47:45.782Z,73.50
2018-04-26T04:52:48.250Z,73.30
2018-04-26T04:57:51.469Z,73.70
2018-04-26T05:02:54.702Z,73.70
2018-04-26T05:07:57.148Z,73.60
2018-04-26T05:13:00.357Z,74.10
2018-04-26T05:18:03.603Z,74.80
2018-04-26T05:23:06.051Z,74.60
2018-04-26T05:28:09.286Z,75.20
2018-04-26T05:33:11.730Z,75.00
2018-04-26T05:38:14.189Z,75.10
2018-04-26T05:43:16.650Z,74.50
2018-04-26T05:48:19.108Z,74.70
2018-04-26T05:53:22.358Z,75.90
2018-04-26T05:58:24.826Z,75.80
2018-04-26T06:03:27.333Z,76.30
2018-04-26T06:08:30.505Z,76.10
2018-04-26T06:13:32.968Z,76.00
2018-04-26T06:18:35.418Z,76.30
2018-04-26T06:23:37.891Z,76.40
2018-04-26T06:28:40.353Z,76.30
2018-04-26T06:33:42.805Z,76.40
2018-04-26T06:38:45.274Z,76.60
2018-04-26T06:43:47.717Z,76.90
2018-04-26T06:48:50.929Z,77.10
2018-04-26T06:53:53.366Z,76.90
2018-04-26T06:58:55.831Z,76.70
2018-04-26T07:03:58.270Z,76.70
2018-04-26T07:09:01.494Z,76.00
2018-04-26T07:14:04.689Z,76.10
2018-04-26T07:19:07.910Z,75.50
2018-04-26T07:24:10.360Z,75.40
2018-04-26T07:29:12.814Z,75.50
2018-04-26T07:34:15.266Z,75.10
2018-04-26T07:39:17.741Z,75.40
2018-04-26T07:44:20.961Z,73.50
2018-04-26T07:49:24.170Z,73.50
2018-04-26T07:54:26.613Z,73.40
2018-04-26T07:59:29.058Z,74.00
2018-04-26T08:04:31.508Z,73.50
2018-04-26T08:09:34.722Z,73.00
2018-04-26T08:14:37.933Z,71.70
2018-04-26T08:19:40.458Z,71.60
2018-04-26T08:24:42.836Z,71.60
2018-04-26T08:29:45.294Z,71.50
2018-04-26T08:34:48.510Z,72.00
2018-04-26T08:39:50.953Z,71.90
2018-04-26T08:44:53.397Z,72.20
2018-04-26T08:49:55.858Z,72.70
2018-04-26T08:54:59.090Z,73.50
2018-04-26T09:00:01.542Z,73.30
2018-04-26T09:05:04.759Z,73.80
2018-04-26T09:10:07.969Z,73.60
2018-04-26T09:15:10.421Z,73.40
2018-04-26T09:20:12.878Z,72.70
2018-04-26T09:25:15.330Z,72.90
2018-04-26T09:30:18.537Z,70.00
2018-04-26T09:46:29.248Z,68.10
2018-04-26T09:51:31.677Z,68.40
2018-04-26T09:56:34.129Z,65.50
2018-04-26T10:01:37.397Z,64.70
2018-04-26T10:06:45.596Z,64.60
2018-04-26T10:11:48.798Z,61.00
2018-04-26T10:16:52.083Z,59.50
2018-04-26T10:21:54.454Z,59.50
2018-04-26T10:26:56.922Z,60.40
2018-04-26T10:31:59.373Z,61.60
2018-04-26T10:37:02.564Z,62.00
2018-04-26T10:42:05.027Z,61.10
2018-04-26T10:47:07.509Z,61.80
2018-04-26T10:52:09.969Z,61.60
2018-04-26T10:57:12.437Z,60.30
2018-04-26T11:02:14.883Z,61.10
2018-04-26T11:07:21.308Z,64.30
2018-04-26T11:12:23.740Z,64.20
2018-04-26T11:17:26.185Z,65.10
2018-04-26T11:22:28.630Z,63.50
2018-04-26T11:27:31.097Z,63.70
2018-04-26T11:32:34.304Z,65.50
2018-04-26T11:37:37.540Z,66.50
2018-04-26T11:42:39.973Z,66.50
2018-04-26T11:47:42.451Z,65.90
2018-04-26T11:52:44.893Z,63.60
2018-04-26T11:57:48.110Z,59.70
2018-04-26T12:02:51.386Z,58.40
2018-04-26T12:07:53.765Z,58.40
2018-04-26T12:12:56.213Z,58.00
2018-04-26T12:17:58.660Z,59.50
2018-04-26T12:23:01.101Z,56.60
2018-04-26T12:28:03.549Z,56.60
2018-04-26T12:33:05.989Z,57.20
2018-04-26T12:38:08.438Z,56.60
2018-04-26T12:43:10.892Z,56.30
2018-04-26T12:48:13.341Z,55.80
2018-04-26T12:53:16.538Z,54.50
2018-04-26T12:58:19.001Z,54.40
2018-04-26T13:03:21.442Z,53.00
2018-04-26T13:08:24.682Z,53.50
2018-04-26T13:13:27.121Z,53.40
2018-04-26T13:18:29.572Z,53.60
2018-04-26T13:23:32.026Z,55.10
2018-04-26T13:28:35.233Z,55.80
2018-04-26T13:33:38.457Z,56.20
2018-04-26T13:38:40.897Z,56.20
2018-04-26T13:43:43.332Z,56.80
2018-04-26T13:48:45.808Z,56.30
2018-04-26T13:53:48.249Z,57.00
2018-04-26T13:58:50.707Z,54.60
2018-04-26T14:03:53.925Z,54.60
2018-04-26T14:08:56.439Z,54.60
2018-04-26T14:13:58.859Z,55.10
2018-04-26T14:19:01.310Z,54.30
2018-04-26T14:24:03.763Z,54.10
2018-04-26T14:29:06.224Z,52.90
2018-04-26T14:34:08.673Z,52.50
2018-04-26T14:39:11.881Z,54.20
2018-04-26T14:44:15.098Z,54.40
2018-04-26T14:49:18.341Z,54.20
2018-04-26T14:54:20.809Z,54.10
2018-04-26T14:59:24.070Z,54.10
2018-04-26T15:04:26.519Z,54.60
2018-04-26T15:09:28.969Z,54.40
2018-04-26T15:14:31.427Z,54.70
2018-04-26T15:19:33.874Z,55.00
2018-04-26T15:24:37.181Z,55.40
2018-04-26T15:29:39.614Z,55.30
2018-04-26T15:34:42.058Z,57.70
2018-04-26T15:39:45.290Z,58.20
2018-04-26T15:44:49.573Z,58.10
2018-04-26T15:49:52.050Z,57.70
2018-04-26T15:55:15.271Z,57.40
2018-04-26T16:00:29.402Z,57.30
2018-04-26T16:05:43.681Z,56.50
2018-04-26T16:11:03.619Z,55.80
2018-04-26T16:16:21.211Z,54.70
2018-04-26T16:21:47.277Z,54.70
2018-04-26T16:27:07.085Z,55.50
2018-04-26T16:32:27.038Z,56.40
2018-04-26T16:37:46.865Z,55.80
2018-04-26T16:42:49.336Z,57.30
2018-04-26T16:47:51.777Z,57.50
2018-04-26T16:52:54.229Z,57.80
2018-04-26T16:57:56.678Z,58.00
2018-04-26T17:02:59.913Z,57.70
2018-04-26T17:08:03.122Z,57.50
2018-04-26T17:13:06.316Z,58.00
2018-04-26T17:18:09.566Z,58.30
2018-04-26T17:23:11.989Z,58.20
2018-04-26T17:28:14.480Z,58.70
2018-04-26T17:33:16.886Z,59.30
2018-04-26T17:38:27.226Z,60.90
2018-04-26T17:43:53.082Z,61.30
2018-04-26T17:48:56.316Z,62.10
2018-04-26T17:53:58.785Z,62.00
2018-04-26T17:59:01.959Z,61.30
2018-04-26T18:04:04.442Z,60.70
2018-04-26T18:09:18.139Z,59.00
2018-04-26T18:14:20.663Z,56.40
2018-04-26T18:19:27.306Z,56.80
2018-04-26T18:24:29.740Z,56.50
2018-04-26T18:29:42.033Z,56.70
2018-04-26T18:34:44.498Z,56.80
2018-04-26T18:39:46.946Z,57.00
2018-04-26T18:44:49.403Z,57.10
2018-04-26T18:49:51.840Z,57.00
2018-04-26T18:54:54.291Z,57.30
2018-04-26T19:00:15.909Z,57.60
2018-04-26T19:05:18.475Z,58.00
2018-04-26T19:10:20.918Z,58.20
2018-04-26T19:15:24.978Z,58.50
2018-04-26T19:20:27.496Z,58.80
2018-04-26T19:25:30.742Z,59.50
2018-04-26T19:30:33.165Z,60.00
2018-04-26T19:35:35.619Z,59.80
2018-04-26T19:40:38.065Z,60.30
2018-04-26T19:45:40.534Z,60.50
2018-04-26T19:50:42.992Z,60.80
2018-04-26T19:55:45.458Z,61.10
2018-04-26T20:00:47.896Z,61.40
2018-04-26T20:05:50.339Z,61.80
2018-04-26T20:10:53.879Z,62.50
2018-04-26T20:15:57.073Z,63.10
2018-04-26T20:21:00.296Z,63.30
2018-04-26T20:26:03.508Z,63.70
2018-04-26T20:31:05.954Z,63.60
2018-04-26T20:36:08.528Z,63.90
2018-04-26T20:41:10.999Z,65.10
2018-04-26T20:46:13.453Z,64.10
2018-04-26T20:51:15.911Z,64.20
2018-04-26T20:56:19.197Z,64.00
2018-04-26T21:01:21.637Z,64.00
2018-04-26T21:06:24.089Z,64.10
2018-04-26T21:11:26.545Z,63.80
2018-04-26T21:16:29.499Z,63.80
2018-04-26T21:21:31.963Z,63.90
2018-04-26T21:26:34.422Z,63.70
2018-04-26T21:31:36.929Z,63.90
2018-04-26T21:36:39.379Z,63.90
2018-04-26T21:41:41.852Z,64.00
2018-04-26T21:46:47.546Z,64.00
2018-04-26T21:51:55.576Z,64.20
2018-04-26T21:57:03.846Z,65.40
2018-04-26T22:02:12.609Z,65.90
2018-04-26T22:07:15.078Z,65.70
2018-04-26T22:12:18.414Z,66.50
2018-04-26T22:17:20.875Z,66.20
2018-04-26T22:22:24.076Z,66.80
2018-04-26T22:27:27.378Z,66.90
2018-04-26T22:32:29.826Z,66.70
2018-04-26T22:37:32.277Z,67.10
2018-04-26T22:42:35.489Z,68.40
2018-04-26T22:47:46.970Z,69.30
2018-04-26T22:52:51.479Z,69.20
2018-04-26T22:57:53.934Z,69.20
2018-04-26T23:02:57.150Z,69.80
2018-04-26T23:07:59.605Z,69.70
2018-04-26T23:13:02.074Z,70.00
2018-04-26T23:18:04.530Z,70.80
2018-04-26T23:23:20.402Z,70.80
2018-04-26T23:28:22.849Z,70.70
2018-04-26T23:33:25.301Z,70.70
2018-04-26T23:38:28.735Z,71.50
2018-04-26T23:48:48.426Z,71.80
2018-04-26T23:53:50.945Z,72.20
2018-04-26T23:58:54.211Z,73.10
